Time;durP1;ratioP1;P1;durP2;ratioP2;P2;SDS_P1;SDS_P2;PMS_P1;PMS_P2;Temp;Humidity;BMP_temperature;BMP_pressure;BME280_temperature;BME280_humidity;BME280_pressure;Samples;Min_cycle;Max_cycle;Signal;HPM_P1;HPM_P2
2023/02/26 00:02:15;;;;;;;4.90;3.00;;;5.40;99.90;;;;;;5013231;28;20048;-87
2023/02/26 00:04:41;;;;;;;5.80;3.00;;;5.40;99.90;;;;;;5012563;28;20018;-89
2023/02/26 00:07:07;;;;;;;7.88;3.63;;;5.60;99.90;;;;;;5013002;28;20025;-88
2023/02/26 00:09:32;;;;;;;5.95;3.25;;;5.60;99.90;;;;;;5013510;28;20022;-89
2023/02/26 00:11:59;;;;;;;5.13;2.83;;;5.80;99.90;;;;;;5012803;28;20101;-88
2023/02/26 00:14:26;;;;;;;7.07;3.30;;;5.70;99.90;;;;;;4995118;28;20022;-88
2023/02/26 00:17:25;;;;;;;6.40;3.42;;;5.60;99.90;;;;;;5012590;28;20079;-88
2023/02/26 00:19:51;;;;;;;7.97;3.67;;;5.50;99.90;;;;;;5012450;28;20030;-88
2023/02/26 00:22:17;;;;;;;6.88;3.17;;;5.40;99.90;;;;;;4995539;28;20030;-88
2023/02/26 00:24:42;;;;;;;8.82;3.70;;;5.70;99.90;;;;;;5012688;28;20018;-88
2023/02/26 00:27:10;;;;;;;8.55;3.60;;;5.60;99.90;;;;;;5012656;28;20113;-88
2023/02/26 00:29:37;;;;;;;5.40;3.08;;;5.40;99.90;;;;;;5012574;28;20446;-88
2023/02/26 00:32:03;;;;;;;6.10;3.03;;;5.50;99.90;;;;;;4995438;28;20387;-88
2023/02/26 00:34:29;;;;;;;7.95;3.67;;;5.60;99.90;;;;;;4994593;28;20072;-88
2023/02/26 00:37:27;;;;;;;6.90;2.88;;;5.30;99.90;;;;;;5012331;28;20074;-88
2023/02/26 00:40:17;;;;;;;5.07;2.85;;;5.30;99.90;;;;;;5012491;28;20036;-88
2023/02/26 00:42:43;;;;;;;7.60;3.10;;;5.30;99.90;;;;;;5012413;28;20088;-89
2023/02/26 00:45:10;;;;;;;5.35;2.40;;;5.40;99.90;;;;;;4994740;28;20026;-89
2023/02/26 00:47:52;;;;;;;5.65;2.80;;;5.30;99.90;;;;;;5012726;28;20450;-89
2023/02/26 00:50:23;;;;;;;5.18;3.08;;;5.30;99.90;;;;;;5012462;28;20053;-87
2023/02/26 00:53:12;;;;;;;6.10;2.85;;;5.40;99.90;;;;;;5012570;28;20033;-87
2023/02/26 00:55:38;;;;;;;7.57;2.88;;;5.40;99.90;;;;;;4986899;28;20560;-89
2023/02/26 00:58:04;;;;;;;5.47;2.92;;;5.20;99.90;;;;;;5001318;28;20026;-89
2023/02/26 01:00:30;;;;;;;4.90;2.70;;;5.40;99.90;;;;;;5018787;28;20084;-89
2023/02/26 01:02:57;;;;;;;6.82;2.95;;;5.40;99.90;;;;;;5018725;28;20034;-88
2023/02/26 01:05:22;;;;;;;5.38;3.05;;;5.00;99.90;;;;;;5018821;28;20018;-88
2023/02/26 01:08:03;;;;;;;6.40;2.72;;;5.10;99.90;;;;;;5018791;28;20029;-88
2023/02/26 01:10:29;;;;;;;6.60;2.80;;;5.10;99.90;;;;;;5018727;28;20018;-88
2023/02/26 01:12:55;;;;;;;7.55;3.10;;;5.10;99.90;;;;;;5001464;28;20038;-88
2023/02/26 01:15:23;;;;;;;10.48;3.70;;;5.10;99.90;;;;;;5001314;28;20029;-88
2023/02/26 01:18:29;;;;;;;4.75;2.75;;;5.00;99.90;;;;;;5017860;28;20121;-89
2023/02/26 01:21:03;;;;;;;5.22;2.72;;;5.00;99.90;;;;;;5001799;28;20454;-88
2023/02/26 01:23:34;;;;;;;7.75;3.17;;;5.20;99.90;;;;;;5018395;28;20437;-88
2023/02/26 01:26:07;;;;;;;6.50;2.83;;;4.90;99.90;;;;;;5018281;28;20030;-88
2023/02/26 01:28:34;;;;;;;7.82;3.03;;;5.00;99.90;;;;;;5018676;28;20474;-88
2023/02/26 01:31:04;;;;;;;6.88;3.53;;;4.90;99.90;;;;;;5018648;28;20030;-88
2023/02/26 01:33:47;;;;;;;6.35;2.85;;;4.90;99.90;;;;;;5018120;28;20037;-87
2023/02/26 01:36:23;;;;;;;6.93;3.00;;;5.10;99.90;;;;;;5000937;28;20103;-87
2023/02/26 01:38:57;;;;;;;6.60;3.03;;;4.90;99.90;;;;;;5018675;28;20038;-88
2023/02/26 01:41:30;;;;;;;6.15;3.22;;;5.00;99.90;;;;;;5018147;28;20024;-89
2023/02/26 01:44:33;;;;;;;4.28;2.75;;;5.00;99.90;;;;;;5018440;28;20040;-88
2023/02/26 01:47:20;;;;;;;6.28;3.38;;;4.80;99.90;;;;;;5017473;28;20026;-88
2023/02/26 01:49:46;;;;;;;5.60;3.25;;;4.90;99.90;;;;;;5018171;28;20033;-88
2023/02/26 01:52:33;;;;;;;7.88;3.17;;;4.70;99.90;;;;;;5018839;28;20022;-88
2023/02/26 01:54:59;;;;;;;8.23;3.30;;;4.70;99.90;;;;;;5000399;28;20026;-88
2023/02/26 01:57:25;;;;;;;4.80;2.60;;;5.00;99.90;;;;;;5018398;28;20026;-88
2023/02/26 01:59:52;;;;;;;6.78;3.03;;;4.50;99.90;;;;;;5000508;28;20033;-88
2023/02/26 02:02:22;;;;;;;6.63;3.00;;;5.00;99.90;;;;;;5018157;28;20582;-88
2023/02/26 02:04:48;;;;;;;4.53;2.67;;;5.10;99.90;;;;;;5018349;28;20017;-88
2023/02/26 02:07:15;;;;;;;6.47;2.70;;;4.70;99.90;;;;;;5017663;28;20030;-88
2023/02/26 02:09:41;;;;;;;4.63;2.95;;;4.70;99.90;;;;;;5014377;28;20021;-88
2023/02/26 02:12:31;;;;;;;5.93;2.60;;;4.40;99.90;;;;;;5015162;28;20084;-88
2023/02/26 02:14:59;;;;;;;6.78;2.80;;;4.30;99.90;;;;;;5014878;28;20026;-88
2023/02/26 02:18:00;;;;;;;6.43;2.75;;;4.50;99.90;;;;;;5014832;28;20026;-88
2023/02/26 02:20:46;;;;;;;7.18;2.85;;;4.50;99.90;;;;;;4997290;28;20061;-88
2023/02/26 02:23:25;;;;;;;4.35;2.70;;;4.20;99.90;;;;;;5014860;28;20038;-89
2023/02/26 02:26:08;;;;;;;6.18;2.92;;;4.30;99.90;;;;;;4996999;28;20103;-89
2023/02/26 02:29:02;;;;;;;5.38;2.58;;;4.40;99.90;;;;;;5014650;28;20467;-88
2023/02/26 02:31:33;;;;;;;8.23;3.55;;;4.30;99.90;;;;;;5014875;28;20030;-89
2023/02/26 02:34:05;;;;;;;7.35;3.15;;;4.20;99.90;;;;;;5014804;28;20026;-88
2023/02/26 02:36:44;;;;;;;5.40;3.20;;;4.10;99.90;;;;;;5014450;28;20046;-88
2023/02/26 02:39:24;;;;;;;4.25;2.60;;;4.00;99.90;;;;;;4998177;28;20022;-89
2023/02/26 02:42:00;;;;;;;8.27;3.17;;;3.90;99.90;;;;;;5014265;28;20033;-89
2023/02/26 02:44:28;;;;;;;7.47;3.30;;;4.00;99.90;;;;;;5014141;28;20041;-89
2023/02/26 02:46:57;;;;;;;5.68;2.83;;;4.50;99.90;;;;;;5014442;28;20037;-89
2023/02/26 02:49:36;;;;;;;5.88;3.03;;;4.30;99.90;;;;;;5014263;28;20084;-89
2023/02/26 02:52:28;;;;;;;7.68;3.08;;;3.80;99.90;;;;;;4996801;28;20026;-89
2023/02/26 02:55:22;;;;;;;7.43;3.20;;;3.80;99.90;;;;;;4988885;28;20145;-88
2023/02/26 02:57:58;;;;;;;6.45;3.05;;;3.80;99.90;;;;;;5014265;28;20449;-89
2023/02/26 03:00:25;;;;;;;7.70;3.67;;;3.90;99.90;;;;;;5014151;28;20029;-90
2023/02/26 03:03:00;;;;;;;8.05;2.60;;;3.90;99.90;;;;;;5014108;28;20441;-89
2023/02/26 03:05:26;;;;;;;8.50;2.78;;;4.10;99.90;;;;;;4996575;28;20113;-89
2023/02/26 03:07:59;;;;;;;6.25;3.15;;;3.70;99.90;;;;;;5014137;28;20466;-89
2023/02/26 03:10:25;;;;;;;5.03;2.70;;;3.70;99.90;;;;;;4996491;28;20026;-88
2023/02/26 03:12:50;;;;;;;5.88;3.08;;;3.60;99.90;;;;;;4995993;28;20061;-88
2023/02/26 03:15:24;;;;;;;4.70;3.00;;;3.90;99.90;;;;;;5014150;28;20437;-87
2023/02/26 03:17:58;;;;;;;7.63;3.08;;;3.90;99.90;;;;;;4996432;28;20058;-87
2023/02/26 03:20:33;;;;;;;6.82;3.00;;;3.90;99.90;;;;;;4996313;28;20084;-87
2023/02/26 03:23:20;;;;;;;9.98;3.33;;;3.60;99.90;;;;;;5013455;28;20042;-88
2023/02/26 03:25:50;;;;;;;7.22;3.20;;;3.50;99.90;;;;;;5013939;28;20022;-88
2023/02/26 03:28:27;;;;;;;7.25;3.50;;;3.90;99.90;;;;;;5013263;28;20022;-88
2023/02/26 03:31:08;;;;;;;9.10;3.33;;;3.50;99.90;;;;;;5013546;28;20030;-87
2023/02/26 03:33:46;;;;;;;6.85;3.05;;;3.60;99.90;;;;;;5013824;28;20109;-87
2023/02/26 03:36:43;;;;;;;9.68;3.13;;;3.40;99.90;;;;;;4995449;28;20414;-88
2023/02/26 03:39:25;;;;;;;5.95;3.03;;;3.60;99.90;;;;;;4995822;28;20037;-87
2023/02/26 03:42:01;;;;;;;8.20;3.33;;;3.50;99.90;;;;;;5013051;28;20449;-88
2023/02/26 03:44:33;;;;;;;8.20;3.17;;;3.60;99.90;;;;;;5013175;28;20517;-87
2023/02/26 03:47:06;;;;;;;5.40;3.22;;;3.60;99.90;;;;;;5013350;28;20103;-87
2023/02/26 03:49:41;;;;;;;7.40;3.15;;;3.60;99.90;;;;;;5012797;28;20490;-88
2023/02/26 03:52:07;;;;;;;8.98;3.05;;;3.50;99.90;;;;;;5013579;28;20061;-88
2023/02/26 03:55:14;;;;;;;5.57;2.88;;;3.70;99.90;;;;;;5012988;28;20049;-89
2023/02/26 03:57:40;;;;;;;6.07;3.00;;;3.40;99.90;;;;;;5012064;28;20125;-88
2023/02/26 04:00:09;;;;;;;6.40;3.40;;;3.40;99.90;;;;;;5013225;28;20453;-88
2023/02/26 04:02:56;;;;;;;8.25;3.03;;;3.40;99.90;;;;;;5012874;28;20033;-87
2023/02/26 04:05:30;;;;;;;8.27;3.80;;;3.30;99.90;;;;;;5013154;28;20077;-87
2023/02/26 04:07:56;;;;;;;7.65;3.75;;;3.40;99.90;;;;;;4995457;28;20030;-88
2023/02/26 04:10:31;;;;;;;7.43;3.58;;;3.60;99.90;;;;;;4995113;28;20037;-88
2023/02/26 04:13:01;;;;;;;6.28;3.33;;;3.60;99.90;;;;;;5012489;28;20029;-87
2023/02/26 04:15:27;;;;;;;5.32;3.33;;;3.30;99.90;;;;;;4995693;28;20398;-87
2023/02/26 04:17:52;;;;;;;7.70;3.60;;;3.30;99.90;;;;;;4995015;28;20032;-88
2023/02/26 04:20:18;;;;;;;6.57;3.65;;;3.40;99.90;;;;;;4995119;28;20033;-88
2023/02/26 04:22:44;;;;;;;8.88;4.03;;;3.00;99.90;;;;;;5012513;28;20399;-88
2023/02/26 04:25:10;;;;;;;8.60;3.83;;;3.10;99.90;;;;;;5012913;28;20030;-87
2023/02/26 04:27:35;;;;;;;9.25;3.80;;;2.90;99.90;;;;;;5012239;28;20036;-87
2023/02/26 04:30:01;;;;;;;10.93;4.03;;;3.50;99.90;;;;;;5012360;28;20030;-88
2023/02/26 04:32:26;;;;;;;9.27;3.75;;;3.40;99.90;;;;;;5012030;28;20453;-87
2023/02/26 04:34:52;;;;;;;8.52;4.22;;;3.50;99.90;;;;;;4994839;28;20430;-88
2023/02/26 04:37:18;;;;;;;9.15;4.15;;;3.20;99.90;;;;;;5012444;28;20049;-88
2023/02/26 04:39:44;;;;;;;7.65;4.30;;;3.50;99.90;;;;;;5012175;28;20026;-85
2023/02/26 04:42:09;;;;;;;9.25;4.47;;;3.10;99.90;;;;;;5012349;28;20088;-88
2023/02/26 04:44:35;;;;;;;9.98;4.03;;;3.00;99.90;;;;;;5012448;28;20399;-87
2023/02/26 04:47:00;;;;;;;6.80;3.78;;;3.40;99.90;;;;;;4994660;28;20037;-88
2023/02/26 04:49:26;;;;;;;6.88;4.13;;;3.40;99.90;;;;;;4995074;28;20116;-87
2023/02/26 04:51:52;;;;;;;7.72;4.10;;;2.90;99.90;;;;;;5012389;28;20033;-88
2023/02/26 04:54:17;;;;;;;9.35;4.22;;;3.00;99.90;;;;;;4994324;28;20037;-88
2023/02/26 04:56:43;;;;;;;8.43;4.20;;;3.00;99.90;;;;;;4994610;28;20394;-88
2023/02/26 04:59:08;;;;;;;8.60;4.68;;;3.00;99.90;;;;;;5012420;28;20029;-88
2023/02/26 05:01:34;;;;;;;6.95;4.35;;;3.10;99.90;;;;;;5012318;28;20034;-87
2023/02/26 05:04:00;;;;;;;9.15;4.13;;;3.50;99.90;;;;;;4994622;28;20041;-87
2023/02/26 05:06:26;;;;;;;8.73;3.80;;;2.90;99.90;;;;;;4995057;28;20512;-88
2023/02/26 05:08:52;;;;;;;7.82;4.63;;;3.40;99.90;;;;;;5011941;28;20022;-87
2023/02/26 05:11:17;;;;;;;7.90;4.30;;;3.40;99.90;;;;;;4994635;28;20394;-88
2023/02/26 05:13:43;;;;;;;9.60;4.65;;;3.30;99.90;;;;;;4994502;28;20030;-88
2023/02/26 05:16:09;;;;;;;7.63;5.03;;;2.70;99.90;;;;;;4994226;28;20029;-88
2023/02/26 05:18:35;;;;;;;6.72;4.35;;;3.40;99.90;;;;;;5012576;28;20065;-87
2023/02/26 05:21:00;;;;;;;8.77;4.30;;;3.30;99.90;;;;;;4994409;28;20049;-88
2023/02/26 05:23:26;;;;;;;9.35;4.82;;;2.70;99.90;;;;;;4994037;28;20034;-87
2023/02/26 05:25:55;;;;;;;5.80;4.35;;;2.80;99.90;;;;;;5011971;28;20037;-88
2023/02/26 05:28:22;;;;;;;9.73;4.45;;;2.80;99.90;;;;;;5012303;28;20029;-87
2023/02/26 05:30:47;;;;;;;6.40;4.45;;;2.70;99.90;;;;;;5012236;28;20066;-88
2023/02/26 05:33:13;;;;;;;6.40;4.30;;;2.90;99.90;;;;;;5011760;28;20030;-88
2023/02/26 05:35:38;;;;;;;5.68;4.60;;;3.40;99.90;;;;;;5011827;28;20527;-88
2023/02/26 05:38:04;;;;;;;7.50;6.30;;;3.40;99.90;;;;;;5011696;28;20057;-88
2023/02/26 05:40:29;;;;;;;15.65;6.70;;;3.20;99.90;;;;;;5011801;28;20057;-87
2023/02/26 05:42:55;;;;;;;7.63;4.15;;;2.80;99.90;;;;;;5011241;28;20048;-88
2023/02/26 05:45:21;;;;;;;6.43;4.45;;;3.00;99.90;;;;;;5015622;28;20030;-87
2023/02/26 05:47:46;;;;;;;7.07;5.78;;;3.00;99.90;;;;;;5015232;28;20367;-88
2023/02/26 05:50:12;;;;;;;7.18;5.47;;;3.10;99.90;;;;;;5015454;28;20034;-88
2023/02/26 05:52:38;;;;;;;7.95;4.45;;;3.00;99.90;;;;;;5015354;28;20030;-88
2023/02/26 05:55:04;;;;;;;5.45;4.38;;;2.50;99.90;;;;;;5015345;28;20510;-87
2023/02/26 05:57:30;;;;;;;4.78;4.05;;;2.40;99.90;;;;;;5015346;28;20108;-87
2023/02/26 05:59:55;;;;;;;8.00;4.68;;;2.60;99.90;;;;;;5015516;28;20446;-87
2023/02/26 06:02:21;;;;;;;7.68;4.45;;;2.90;99.90;;;;;;5015079;28;20056;-87
2023/02/26 06:04:47;;;;;;;7.50;4.65;;;2.60;99.90;;;;;;5015507;28;20076;-87
2023/02/26 06:07:13;;;;;;;5.63;4.28;;;2.70;99.90;;;;;;5014939;28;20068;-88
2023/02/26 06:09:39;;;;;;;6.32;4.35;;;2.80;99.90;;;;;;5015523;28;20048;-88
2023/02/26 06:12:05;;;;;;;7.38;4.30;;;2.70;99.90;;;;;;4997415;28;20022;-87
2023/02/26 06:14:31;;;;;;;7.22;4.38;;;2.30;99.90;;;;;;5015320;28;20030;-86
2023/02/26 06:16:57;;;;;;;8.45;4.40;;;2.60;99.90;;;;;;5005733;28;20113;-88
2023/02/26 06:19:23;;;;;;;6.30;4.07;;;2.40;99.90;;;;;;5014967;28;20557;-87
2023/02/26 06:21:49;;;;;;;7.15;4.10;;;2.00;99.90;;;;;;5014762;28;20098;-88
2023/02/26 06:24:15;;;;;;;6.20;4.15;;;2.20;99.90;;;;;;5015267;28;20030;-88
2023/02/26 06:26:40;;;;;;;7.03;4.20;;;2.80;99.90;;;;;;5014851;28;20108;-88
2023/02/26 06:29:07;;;;;;;5.88;3.58;;;2.50;99.90;;;;;;5014910;28;20033;-87
2023/02/26 06:31:32;;;;;;;8.52;3.47;;;2.60;99.90;;;;;;4997176;28;20088;-87
2023/02/26 06:33:58;;;;;;;7.57;3.60;;;2.50;99.90;;;;;;5015015;28;20022;-87
2023/02/26 06:36:24;;;;;;;6.85;3.47;;;2.50;99.90;;;;;;5014385;28;20050;-87
2023/02/26 06:38:49;;;;;;;5.88;3.30;;;2.30;99.90;;;;;;4997186;28;20457;-87
2023/02/26 06:41:15;;;;;;;4.10;3.22;;;2.70;99.90;;;;;;5014256;28;20487;-88
2023/02/26 06:43:40;;;;;;;6.35;3.60;;;2.70;99.90;;;;;;5014707;28;20046;-93
2023/02/26 06:46:11;;;;;;;8.68;3.38;;;2.60;99.90;;;;;;5049876;23;20041;-96
2023/02/26 06:48:55;;;;;;;4.10;3.10;;;2.60;99.90;;;;;;5470316;23;20035;-95
2023/02/26 06:56:32;;;;;;;3.67;2.80;;;2.10;99.90;;;;;;5454290;23;20077;-94
2023/02/26 06:58:58;;;;;;;5.68;2.47;;;2.70;99.90;;;;;;5036698;28;20025;-92
2023/02/26 07:01:23;;;;;;;4.97;2.70;;;2.70;99.90;;;;;;5036492;28;20094;-94
2023/02/26 07:03:49;;;;;;;3.63;2.70;;;2.10;99.90;;;;;;5035443;28;20555;-95
2023/02/26 07:06:15;;;;;;;5.10;3.00;;;2.40;99.90;;;;;;5018358;28;20022;-94
2023/02/26 07:08:41;;;;;;;3.85;2.55;;;2.40;99.90;;;;;;5035761;28;20029;-94
2023/02/26 07:11:08;;;;;;;4.68;2.78;;;2.70;99.90;;;;;;5035350;28;20087;-94
2023/02/26 07:13:37;;;;;;;5.40;2.92;;;2.10;99.90;;;;;;5035832;28;20045;-94
2023/02/26 07:16:06;;;;;;;5.32;2.78;;;2.20;99.90;;;;;;5016624;28;20057;-94
2023/02/26 07:18:36;;;;;;;4.93;3.30;;;2.30;99.90;;;;;;5015303;28;20041;-94
2023/02/26 07:21:02;;;;;;;4.47;3.30;;;2.30;99.90;;;;;;4998333;28;20434;-94
2023/02/26 07:23:28;;;;;;;6.90;3.67;;;2.40;99.90;;;;;;4998162;28;20042;-94
2023/02/26 07:25:53;;;;;;;4.70;2.63;;;2.90;99.90;;;;;;5015298;28;20410;-94
2023/02/26 07:28:19;;;;;;;3.80;2.70;;;2.80;99.90;;;;;;5015488;28;20502;-94
2023/02/26 07:30:45;;;;;;;4.70;2.58;;;2.40;99.90;;;;;;5015977;28;20496;-91
2023/02/26 07:33:12;;;;;;;5.78;2.72;;;2.50;99.90;;;;;;5018589;28;20439;-94
2023/02/26 07:35:38;;;;;;;5.22;2.40;;;3.20;99.90;;;;;;5034545;28;20398;-92
2023/02/26 07:38:04;;;;;;;4.15;2.35;;;2.90;99.90;;;;;;5029463;28;20080;-92
2023/02/26 07:40:30;;;;;;;5.72;2.40;;;3.00;99.90;;;;;;5034042;28;20064;-89
2023/02/26 07:42:56;;;;;;;4.60;2.70;;;2.70;99.90;;;;;;5006539;28;20060;-91
2023/02/26 07:45:22;;;;;;;3.40;2.50;;;3.30;99.90;;;;;;5014884;28;20065;-90
2023/02/26 07:47:52;;;;;;;5.53;2.60;;;3.30;99.90;;;;;;5000916;28;20539;-95
2023/02/26 07:50:18;;;;;;;3.17;2.22;;;3.20;99.90;;;;;;5033751;28;20037;-90
2023/02/26 07:52:45;;;;;;;4.72;2.97;;;3.00;99.90;;;;;;5029976;28;20105;-89
2023/02/26 07:55:11;;;;;;;5.97;2.65;;;2.90;99.90;;;;;;5022290;28;20034;-89
2023/02/26 07:57:37;;;;;;;6.93;2.40;;;3.50;99.90;;;;;;5033311;28;20042;-89
2023/02/26 08:00:04;;;;;;;3.45;2.67;;;3.50;99.90;;;;;;5033774;28;20506;-91
2023/02/26 08:02:30;;;;;;;4.35;2.70;;;3.10;99.90;;;;;;5033055;28;20092;-90
2023/02/26 08:04:56;;;;;;;3.92;2.60;;;3.30;99.90;;;;;;5009135;28;20494;-89
2023/02/26 08:07:22;;;;;;;5.50;2.95;;;3.50;99.90;;;;;;5013691;28;20382;-90
2023/02/26 08:09:47;;;;;;;3.20;2.40;;;3.60;99.90;;;;;;4997263;28;20030;-90
2023/02/26 08:12:13;;;;;;;3.30;2.53;;;3.40;99.90;;;;;;5032973;28;20041;-89
2023/02/26 08:14:40;;;;;;;4.22;2.50;;;3.60;99.90;;;;;;5031469;28;20079;-84
2023/02/26 08:17:07;;;;;;;4.25;2.30;;;3.50;99.90;;;;;;5033150;28;20029;-78
2023/02/26 08:19:33;;;;;;;3.67;2.55;;;3.80;99.90;;;;;;5033546;28;20026;-90
2023/02/26 08:21:58;;;;;;;3.83;2.47;;;4.40;99.90;;;;;;5033126;28;20375;-90
2023/02/26 08:24:24;;;;;;;9.52;2.83;;;4.40;99.90;;;;;;5027262;28;20441;-81
2023/02/26 08:26:50;;;;;;;3.80;1.92;;;3.80;99.90;;;;;;5024338;28;20389;-78
2023/02/26 08:29:16;;;;;;;3.08;2.40;;;4.80;99.90;;;;;;5028337;28;20048;-91
2023/02/26 08:31:41;;;;;;;3.15;2.53;;;4.80;99.90;;;;;;5002829;28;20114;-92
2023/02/26 08:34:07;;;;;;;4.07;2.50;;;4.90;99.90;;;;;;5022540;28;20030;-90
2023/02/26 08:36:33;;;;;;;3.88;2.47;;;5.20;99.90;;;;;;5029066;28;20112;-93
2023/02/26 08:38:58;;;;;;;3.40;2.47;;;5.50;99.90;;;;;;4995865;28;20026;-92
2023/02/26 08:41:26;;;;;;;5.05;2.38;;;5.80;99.90;;;;;;5014408;28;20034;-92
2023/02/26 08:43:52;;;;;;;3.28;2.70;;;7.70;99.90;;;;;;5020929;28;20033;-92
2023/02/26 08:46:17;;;;;;;3.67;2.42;;;10.50;99.90;;;;;;5032913;28;20017;-93
2023/02/26 08:48:43;;;;;;;4.95;2.83;;;11.90;99.90;;;;;;5018668;28;20030;-92
2023/02/26 08:51:09;;;;;;;3.72;2.45;;;11.40;99.90;;;;;;4996504;28;20026;-92
2023/02/26 08:53:34;;;;;;;5.15;2.90;;;12.70;99.90;;;;;;5013187;28;20034;-93
2023/02/26 08:56:00;;;;;;;3.70;2.42;;;11.50;99.90;;;;;;4995785;28;20395;-93
2023/02/26 08:58:26;;;;;;;3.55;2.72;;;11.40;99.90;;;;;;5013238;28;20489;-93
2023/02/26 09:00:52;;;;;;;4.22;2.35;;;13.10;99.90;;;;;;5013237;28;20025;-92
2023/02/26 09:03:18;;;;;;;3.22;2.70;;;13.10;99.90;;;;;;4995603;28;20048;-93
2023/02/26 09:05:43;;;;;;;5.50;2.90;;;13.80;99.90;;;;;;5013413;28;20025;-93
2023/02/26 09:08:10;;;;;;;3.08;2.45;;;14.10;99.90;;;;;;5026903;28;20037;-95
2023/02/26 09:10:36;;;;;;;3.97;3.05;;;13.20;99.90;;;;;;5032671;28;20040;-86
2023/02/26 09:13:02;;;;;;;5.78;3.20;;;12.30;99.90;;;;;;5031686;28;20033;-87
2023/02/26 09:15:27;;;;;;;3.65;3.03;;;13.20;99.90;;;;;;5031590;28;20041;-86
2023/02/26 09:17:53;;;;;;;2.90;2.60;;;13.10;99.90;;;;;;5022153;28;20109;-85
2023/02/26 09:20:18;;;;;;;3.67;2.67;;;12.20;99.90;;;;;;5029510;28;20049;-86
2023/02/26 09:22:44;;;;;;;3.92;3.08;;;13.90;99.90;;;;;;5031151;28;20043;-85
2023/02/26 09:25:10;;;;;;;4.03;3.10;;;15.00;99.90;;;;;;5035793;28;20538;-84
2023/02/26 09:27:36;;;;;;;4.50;2.75;;;13.10;99.90;;;;;;5035819;28;20060;-85
2023/02/26 09:30:05;;;;;;;4.60;3.08;;;13.10;99.90;;;;;;5035669;28;20053;-85
2023/02/26 09:32:31;;;;;;;4.72;2.88;;;13.70;99.90;;;;;;5035487;28;20021;-85
2023/02/26 09:34:57;;;;;;;4.05;2.90;;;13.00;99.90;;;;;;5035673;28;20549;-84
2023/02/26 09:37:22;;;;;;;3.33;2.83;;;12.80;99.90;;;;;;5035671;28;20033;-84
2023/02/26 09:39:48;;;;;;;2.88;2.55;;;13.30;99.90;;;;;;5035833;28;20112;-85
2023/02/26 09:42:16;;;;;;;2.67;2.40;;;13.00;99.90;;;;;;5035213;28;20021;-85
2023/02/26 09:44:42;;;;;;;4.28;2.70;;;13.50;99.90;;;;;;5035423;28;20033;-85
2023/02/26 09:47:13;;;;;;;3.08;2.40;;;15.10;99.90;;;;;;5035344;28;20486;-84
2023/02/26 09:50:08;;;;;;;3.55;2.40;;;12.80;99.90;;;;;;5035300;28;20037;-84
2023/02/26 09:52:44;;;;;;;3.65;2.83;;;12.90;99.90;;;;;;5035131;28;20029;-82
2023/02/26 09:55:44;;;;;;;3.78;2.70;;;13.40;99.90;;;;;;5029808;28;20026;-84
2023/02/26 09:58:20;;;;;;;3.13;2.70;;;13.70;99.90;;;;;;4916778;29;20052;-84
2023/02/26 10:01:09;;;;;;;3.30;2.85;;;13.60;99.90;;;;;;4916411;29;20115;-84
2023/02/26 10:04:02;;;;;;;3.15;2.78;;;14.10;99.90;;;;;;4916463;29;20044;-84
2023/02/26 10:06:32;;;;;;;4.22;2.90;;;14.00;99.90;;;;;;4916568;29;20032;-84
2023/02/26 10:09:12;;;;;;;3.03;2.40;;;13.20;99.90;;;;;;4900534;29;20033;-84
2023/02/26 10:12:03;;;;;;;4.00;2.83;;;12.70;99.90;;;;;;4916546;29;20039;-84
2023/02/26 10:14:37;;;;;;;4.85;2.75;;;12.00;99.90;;;;;;4916231;29;20401;-84
2023/02/26 10:17:13;;;;;;;2.50;2.30;;;12.10;99.90;;;;;;4900654;29;20096;-84
2023/02/26 10:19:44;;;;;;;2.78;2.42;;;12.60;99.90;;;;;;4916356;29;20040;-84
2023/02/26 10:22:16;;;;;;;3.53;2.80;;;13.30;99.90;;;;;;4916445;29;20024;-84
2023/02/26 10:25:09;;;;;;;3.20;2.50;;;13.10;99.90;;;;;;4915934;29;20099;-84
2023/02/26 10:27:44;;;;;;;2.65;2.35;;;14.50;99.90;;;;;;4903408;29;20071;-84
2023/02/26 10:30:27;;;;;;;2.75;2.42;;;14.20;99.90;;;;;;4915413;29;20028;-84
2023/02/26 10:33:15;;;;;;;3.90;2.53;;;12.40;99.90;;;;;;4914098;28;20517;-84
2023/02/26 10:35:51;;;;;;;2.20;2.00;;;13.60;99.90;;;;;;5014788;28;20021;-81
2023/02/26 10:38:21;;;;;;;2.83;2.00;;;12.10;99.90;;;;;;5014230;28;20017;-81
2023/02/26 10:41:13;;;;;;;2.97;2.33;;;10.90;99.90;;;;;;4996967;28;20049;-81
2023/02/26 10:43:49;;;;;;;4.05;2.08;;;12.60;99.90;;;;;;5014218;28;20034;-81
2023/02/26 10:46:22;;;;;;;2.40;2.20;;;12.70;99.90;;;;;;5014428;28;20529;-81
2023/02/26 10:49:30;;;;;;;5.28;2.20;;;10.80;99.90;;;;;;5014316;28;20459;-81
2023/02/26 10:52:00;;;;;;;2.65;2.28;;;9.20;99.90;;;;;;5014118;28;20406;-83
2023/02/26 10:54:32;;;;;;;4.93;1.80;;;9.00;99.90;;;;;;5014017;28;20026;-83
2023/02/26 10:56:58;;;;;;;3.55;1.85;;;10.40;99.90;;;;;;5013550;28;20406;-84
2023/02/26 10:59:24;;;;;;;1.95;1.75;;;10.00;99.90;;;;;;4996662;28;20022;-84
2023/02/26 11:01:51;;;;;;;2.45;2.03;;;9.60;99.90;;;;;;4996624;28;20026;-84
2023/02/26 11:04:23;;;;;;;3.15;1.90;;;8.60;99.90;;;;;;5014354;28;20037;-83
2023/02/26 11:07:00;;;;;;;2.67;1.92;;;8.10;99.90;;;;;;4996630;28;20022;-83
2023/02/26 11:09:40;;;;;;;1.90;1.70;;;8.50;99.90;;;;;;5014098;28;20029;-83
2023/02/26 11:12:13;;;;;;;2.20;1.63;;;7.90;99.90;;;;;;5013921;28;20088;-83
2023/02/26 11:14:40;;;;;;;3.80;1.73;;;8.00;99.90;;;;;;5029347;28;20026;-83
2023/02/26 11:17:28;;;;;;;3.15;1.70;;;8.00;99.90;;;;;;5014168;28;20088;-83
2023/02/26 11:20:00;;;;;;;2.47;1.50;;;7.70;99.90;;;;;;5013879;28;20028;-83
2023/02/26 11:22:32;;;;;;;3.58;1.58;;;7.80;99.90;;;;;;5013512;28;20032;-84
2023/02/26 11:24:59;;;;;;;2.88;1.52;;;7.60;99.90;;;;;;5013749;28;20046;-83
2023/02/26 11:27:30;;;;;;;3.33;1.80;;;8.40;99.90;;;;;;4996374;28;20139;-83
2023/02/26 11:30:01;;;;;;;2.25;1.95;;;8.90;99.90;;;;;;5028697;28;20036;-83
2023/02/26 11:32:34;;;;;;;2.22;1.95;;;9.10;99.90;;;;;;5013666;28;20116;-83
2023/02/26 11:34:59;;;;;;;5.50;3.17;;;9.30;99.90;;;;;;5013442;28;20030;-84
2023/02/26 11:37:32;;;;;;;4.03;2.70;;;8.50;99.90;;;;;;5013795;28;20501;-83
2023/02/26 11:40:09;;;;;;;4.50;2.45;;;8.10;99.90;;;;;;4995683;28;20394;-83
2023/02/26 11:42:38;;;;;;;2.20;2.00;;;7.90;99.90;;;;;;5013523;28;20034;-83
2023/02/26 11:45:05;;;;;;;5.38;2.25;;;8.00;99.90;;;;;;5013338;28;20041;-83
2023/02/26 11:47:32;;;;;;;2.63;1.88;;;8.00;99.90;;;;;;5013152;28;20030;-83
2023/02/26 11:50:12;;;;;;;4.18;2.60;;;8.30;99.90;;;;;;5013819;28;20057;-83
2023/02/26 11:52:44;;;;;;;4.97;3.58;;;8.20;99.90;;;;;;5013279;28;20029;-83
2023/02/26 11:55:18;;;;;;;2.10;1.90;;;8.10;99.90;;;;;;5012645;28;20045;-83
2023/02/26 11:57:45;;;;;;;6.38;2.40;;;8.10;99.90;;;;;;5011958;28;20053;-83
2023/02/26 12:00:22;;;;;;;4.95;2.20;;;8.20;99.90;;;;;;5033296;28;20064;-83
2023/02/26 12:02:48;;;;;;;4.63;2.78;;;7.60;99.90;;;;;;5033290;28;20449;-83
2023/02/26 12:05:16;;;;;;;3.55;2.72;;;7.40;99.90;;;;;;5032700;28;20021;-83
2023/02/26 12:07:42;;;;;;;2.30;1.60;;;7.50;99.90;;;;;;5032712;28;20029;-83
2023/02/26 12:10:26;;;;;;;5.10;1.60;;;7.90;99.90;;;;;;5032470;28;20558;-83
2023/02/26 12:13:10;;;;;;;1.95;1.75;;;7.70;99.90;;;;;;5014957;28;20037;-83
2023/02/26 12:15:53;;;;;;;1.80;1.60;;;7.50;99.90;;;;;;5032466;28;20277;-82
2023/02/26 12:18:46;;;;;;;1.98;1.60;;;7.50;99.90;;;;;;5032472;28;20059;-83
2023/02/26 12:21:38;;;;;;;4.15;1.85;;;7.30;99.90;;;;;;5032721;28;20060;-83
2023/02/26 12:24:12;;;;;;;3.03;1.80;;;7.40;99.90;;;;;;5033196;28;20048;-83
2023/02/26 12:27:23;;;;;;;2.08;1.83;;;7.40;99.90;;;;;;5032775;28;20513;-83
2023/02/26 12:29:52;;;;;;;2.55;1.70;;;7.10;99.90;;;;;;4990723;28;20537;-83
2023/02/26 12:32:26;;;;;;;3.28;2.05;;;7.40;99.90;;;;;;4990984;28;20043;-83
2023/02/26 12:35:07;;;;;;;4.13;2.55;;;7.70;99.90;;;;;;4990823;28;20125;-83
2023/02/26 12:37:56;;;;;;;3.28;1.90;;;7.60;99.90;;;;;;4990844;28;20568;-83
2023/02/26 12:40:43;;;;;;;5.00;2.28;;;7.80;99.90;;;;;;4990234;28;20041;-83
2023/02/26 12:43:14;;;;;;;4.05;1.90;;;7.80;99.90;;;;;;4990745;28;20058;-83
2023/02/26 12:45:39;;;;;;;2.42;1.70;;;7.50;99.90;;;;;;4990656;28;20573;-83
2023/02/26 12:48:26;;;;;;;5.85;2.25;;;7.70;99.90;;;;;;4991033;28;20066;-83
2023/02/26 12:51:10;;;;;;;3.28;1.30;;;7.80;99.90;;;;;;4990698;28;20034;-83
2023/02/26 12:54:33;;;;;;;1.55;1.40;;;7.50;99.90;;;;;;4989641;28;20505;-83
2023/02/26 12:57:22;;;;;;;3.22;1.52;;;7.30;99.90;;;;;;4951372;29;20048;-83
2023/02/26 12:59:58;;;;;;;5.72;2.00;;;7.30;99.90;;;;;;4952066;28;20035;-83
2023/02/26 13:02:44;;;;;;;3.30;1.30;;;7.00;99.90;;;;;;4951595;29;20043;-83
2023/02/26 13:05:10;;;;;;;3.42;1.50;;;6.90;99.90;;;;;;4951907;29;20083;-83
2023/02/26 13:07:50;;;;;;;3.50;1.50;;;6.90;99.90;;;;;;4951381;29;20039;-83
2023/02/26 13:10:32;;;;;;;4.40;1.85;;;6.80;99.90;;;;;;4951898;29;20507;-83
2023/02/26 13:13:09;;;;;;;1.92;1.40;;;7.10;99.90;;;;;;4951751;29;20175;-83
2023/02/26 13:15:47;;;;;;;3.10;1.40;;;7.10;99.90;;;;;;4951776;29;20039;-83
2023/02/26 13:18:18;;;;;;;4.03;1.38;;;6.80;99.90;;;;;;4951618;29;20028;-83
2023/02/26 13:20:59;;;;;;;5.68;1.50;;;7.00;99.90;;;;;;4951805;29;20559;-83
2023/02/26 13:23:32;;;;;;;4.65;1.63;;;7.00;99.90;;;;;;4951652;29;20062;-83
2023/02/26 13:26:09;;;;;;;5.20;1.80;;;6.80;99.90;;;;;;4951807;29;20572;-83